createdAt,value
2023-01-11T00:02:00.567Z,1.83
2023-01-11T00:04:30.741Z,1.88
2023-01-11T00:06:58.630Z,1.48
2023-01-11T00:09:51.840Z,1.80
2023-01-11T00:16:17.623Z,1.80
2023-01-11T00:21:26.968Z,2.20
2023-01-11T00:29:47.403Z,1.80
2023-01-11T00:32:17.957Z,1.50
2023-01-11T00:34:57.191Z,1.80
2023-01-11T00:37:38.897Z,1.58
2023-01-11T00:40:24.201Z,1.58
2023-01-11T00:43:14.601Z,1.35
2023-01-11T00:46:08.044Z,1.38
2023-01-11T00:48:39.521Z,1.30
2023-01-11T00:51:10.796Z,1.70
2023-01-11T00:53:38.747Z,1.60
2023-01-11T00:56:09.596Z,1.77
2023-01-11T00:58:38.155Z,1.63
2023-01-11T01:01:08.717Z,1.60
2023-01-11T01:03:35.964Z,1.83
2023-01-11T01:06:03.335Z,1.73
2023-01-11T01:08:30.052Z,1.50
2023-01-11T01:10:58.699Z,1.80
2023-01-11T01:13:47.408Z,1.77
2023-01-11T01:16:14.972Z,1.70
2023-01-11T01:18:44.792Z,1.77
2023-01-11T01:21:12.325Z,1.60
2023-01-11T01:23:41.829Z,1.77
2023-01-11T01:26:10.171Z,1.80
2023-01-11T01:28:37.962Z,1.33
2023-01-11T01:31:05.500Z,1.55
2023-01-11T01:33:33.128Z,1.98
2023-01-11T01:36:02.142Z,1.70
2023-01-11T01:46:49.877Z,1.85
2023-01-11T01:49:32.786Z,1.50
2023-01-11T01:54:34.476Z,1.60
2023-01-11T01:57:06.663Z,1.90
2023-01-11T01:59:33.938Z,1.40
2023-01-11T02:02:01.699Z,1.35
2023-01-11T02:04:37.819Z,1.63
2023-01-11T02:07:18.700Z,1.30
2023-01-11T02:10:23.643Z,1.58
2023-01-11T02:13:06.578Z,1.20
2023-01-11T02:15:33.617Z,1.27
2023-01-11T02:21:18.516Z,1.70
2023-01-11T02:23:57.925Z,1.33
2023-01-11T02:26:41.260Z,1.55
2023-01-11T02:29:45.543Z,1.77
2023-01-11T02:32:34.441Z,1.52
2023-01-11T02:35:39.328Z,1.17
2023-01-11T02:38:16.033Z,1.42
2023-01-11T02:41:09.330Z,1.33
2023-01-11T02:44:14.177Z,1.27
2023-01-11T02:46:54.725Z,1.20
2023-01-11T02:49:26.943Z,1.30
2023-01-11T02:51:56.965Z,1.50
2023-01-11T02:54:24.654Z,1.63
2023-01-11T02:56:55.615Z,1.55
2023-01-11T02:59:32.634Z,1.77
2023-01-11T03:02:04.577Z,1.30
2023-01-11T03:04:56.007Z,1.20
2023-01-11T03:07:35.667Z,1.60
2023-01-11T03:10:26.171Z,1.10
2023-01-11T03:16:24.018Z,1.45
2023-01-11T03:19:36.269Z,1.30
2023-01-11T03:22:13.219Z,1.60
2023-01-11T03:31:05.935Z,1.20
2023-01-11T03:34:23.146Z,1.45
2023-01-11T03:37:06.232Z,1.55
2023-01-11T03:39:44.657Z,1.48
2023-01-11T03:42:14.276Z,1.20
2023-01-11T03:44:44.477Z,1.83
2023-01-11T03:47:13.582Z,1.25
2023-01-11T03:50:16.285Z,1.20
2023-01-11T03:52:49.098Z,1.38
2023-01-11T04:01:12.882Z,1.08
2023-01-11T04:03:52.624Z,1.30
2023-01-11T04:06:42.802Z,1.38
2023-01-11T04:19:25.758Z,1.10
2023-01-11T04:28:05.256Z,1.70
2023-01-11T04:33:36.434Z,1.65
2023-01-11T04:40:31.209Z,1.20
2023-01-11T04:43:34.275Z,1.20
2023-01-11T05:08:14.853Z,1.10
2023-01-11T05:20:23.149Z,1.10
2023-01-11T05:22:56.102Z,1.00
2023-01-11T05:26:12.619Z,1.10
2023-01-11T07:45:56.198Z,1.15
2023-01-11T07:48:52.156Z,1.08
2023-01-11T07:51:20.540Z,1.00
2023-01-11T07:53:47.157Z,1.40
2023-01-11T07:56:13.585Z,1.10
2023-01-11T07:58:39.986Z,0.80
2023-01-11T08:01:06.550Z,0.90
2023-01-11T08:03:33.237Z,0.80
2023-01-11T08:05:59.746Z,1.35
2023-01-11T08:08:26.211Z,1.08
2023-01-11T08:11:12.637Z,1.10
2023-01-11T08:13:57.776Z,1.30
2023-01-11T08:16:24.214Z,1.15
2023-01-11T08:18:52.370Z,1.30
2023-01-11T08:21:21.080Z,1.02
2023-01-11T08:23:47.602Z,1.00
2023-01-11T08:26:17.028Z,1.00
2023-01-11T08:28:44.333Z,0.98
2023-01-11T08:31:10.865Z,1.02
2023-01-11T08:33:37.346Z,1.00
2023-01-11T08:36:08.935Z,1.13
2023-01-11T08:38:35.502Z,1.00
2023-01-11T08:41:02.985Z,0.90
2023-01-11T08:43:32.229Z,1.10
2023-01-11T08:48:25.105Z,0.93
2023-01-11T08:50:51.872Z,0.90
2023-01-11T08:53:20.304Z,0.80
2023-01-11T08:55:50.757Z,1.07
2023-01-11T08:58:17.287Z,0.77
2023-01-11T09:00:43.778Z,1.00
2023-01-11T09:03:13.229Z,0.90
2023-01-11T09:05:40.367Z,0.88
2023-01-11T09:08:07.978Z,0.80
2023-01-11T09:10:34.803Z,0.85
2023-01-11T09:13:01.469Z,0.65
2023-01-11T09:15:28.365Z,0.50
2023-01-11T09:17:55.629Z,0.70
2023-01-11T09:20:22.513Z,0.60
2023-01-11T09:22:53.097Z,0.60
2023-01-11T09:25:20.365Z,0.55
2023-01-11T09:27:48.667Z,0.50
2023-01-11T09:30:17.451Z,0.60
2023-01-11T09:32:45.375Z,0.73
2023-01-11T09:35:11.858Z,0.70
2023-01-11T09:37:41.210Z,0.50
2023-01-11T09:42:40.904Z,0.60
2023-01-11T09:45:18.545Z,0.80
2023-01-11T09:47:48.790Z,0.70
2023-01-11T09:50:25.374Z,0.70
2023-01-11T09:53:03.191Z,0.70
2023-01-11T09:55:37.252Z,0.68
2023-01-11T09:58:32.284Z,0.73
2023-01-11T10:01:19.092Z,0.60
2023-01-11T10:04:24.332Z,0.68
2023-01-11T10:07:25.250Z,0.70
2023-01-11T10:18:32.760Z,0.60
2023-01-11T10:19:38.721Z,0.47
2023-01-11T10:22:23.403Z,0.63
2023-01-11T10:24:59.012Z,0.60
2023-01-11T10:27:29.838Z,0.60
2023-01-11T10:30:28.667Z,0.70
2023-01-11T10:33:10.905Z,0.80
2023-01-11T10:36:05.920Z,0.88
2023-01-11T10:38:43.491Z,0.68
2023-01-11T10:41:25.859Z,0.50
2023-01-11T10:44:02.644Z,0.60
2023-01-11T10:46:30.258Z,0.60
2023-01-11T10:49:21.196Z,0.70
2023-01-11T10:51:49.093Z,0.70
2023-01-11T10:54:18.236Z,0.60
2023-01-11T10:57:02.381Z,0.80
2023-01-11T10:59:31.024Z,1.08
2023-01-11T11:02:23.370Z,0.85
2023-01-11T11:04:57.267Z,0.63
2023-01-11T11:07:44.938Z,0.80
2023-01-11T11:10:32.839Z,1.00
2023-01-11T11:13:29.823Z,0.90
2023-01-11T11:16:10.362Z,0.80
2023-01-11T11:18:37.341Z,0.60
2023-01-11T11:21:16.306Z,0.60
2023-01-11T11:26:09.749Z,0.63
2023-01-11T11:28:36.658Z,0.60
2023-01-11T11:31:05.267Z,0.60
2023-01-11T11:33:37.027Z,0.68
2023-01-11T11:36:14.177Z,0.70
2023-01-11T11:38:42.698Z,0.70
2023-01-11T11:41:13.045Z,0.60
2023-01-11T11:43:41.292Z,0.55
2023-01-11T11:46:18.940Z,0.60
2023-01-11T11:49:12.721Z,0.60
2023-01-11T11:51:39.888Z,0.80
2023-01-11T11:54:06.323Z,0.77
2023-01-11T11:56:41.665Z,0.70
2023-01-11T11:59:09.999Z,0.85
2023-01-11T12:01:39.843Z,0.75
2023-01-11T12:04:30.742Z,0.77
2023-01-11T12:07:27.271Z,0.73
2023-01-11T12:10:07.119Z,0.68
2023-01-11T12:12:36.325Z,0.75
2023-01-11T12:15:14.829Z,0.80
2023-01-11T12:17:42.028Z,0.77
2023-01-11T12:20:37.460Z,0.77
2023-01-11T12:23:21.488Z,0.90
2023-01-11T12:26:20.375Z,0.90
2023-01-11T12:29:08.592Z,0.95
2023-01-11T12:31:57.875Z,0.70
2023-01-11T12:34:38.298Z,1.00
2023-01-11T12:37:40.241Z,0.75
2023-01-11T12:40:19.897Z,0.70
2023-01-11T12:43:19.740Z,0.60
2023-01-11T12:46:02.890Z,0.70
2023-01-11T12:48:36.901Z,0.52
2023-01-11T12:51:29.096Z,0.50
2023-01-11T12:54:04.468Z,0.70
2023-01-11T12:56:42.831Z,0.60
2023-01-11T12:59:48.303Z,0.70
2023-01-11T13:02:34.544Z,0.50
2023-01-11T13:05:16.192Z,0.60
2023-01-11T13:07:52.183Z,0.77
2023-01-11T13:10:44.109Z,0.70
2023-01-11T13:13:42.277Z,0.80
2023-01-11T13:16:18.649Z,0.70
2023-01-11T13:19:01.174Z,0.60
2023-01-11T13:21:35.402Z,0.50
2023-01-11T13:24:14.888Z,0.75
2023-01-11T13:26:43.706Z,0.60
2023-01-11T13:29:40.159Z,0.80
2023-01-11T13:32:12.218Z,0.52
2023-01-11T13:34:47.260Z,0.50
2023-01-11T13:37:26.020Z,0.65
2023-01-11T13:40:07.816Z,0.80
2023-01-11T13:42:37.840Z,0.70
2023-01-11T13:45:14.510Z,2.50
2023-01-11T13:47:47.997Z,0.80
2023-01-11T13:50:32.519Z,0.80
2023-01-11T13:53:09.941Z,0.85
2023-01-11T13:55:39.373Z,1.40
2023-01-11T14:01:00.814Z,1.00
2023-01-11T14:03:52.336Z,0.70
2023-01-11T14:06:31.189Z,0.90
2023-01-11T14:09:00.592Z,1.30
2023-01-11T14:11:45.911Z,1.05
2023-01-11T14:14:46.678Z,0.85
2023-01-11T14:17:40.004Z,0.70
2023-01-11T14:20:13.630Z,0.63
2023-01-11T14:23:13.318Z,0.80
2023-01-11T14:25:42.717Z,0.80
2023-01-11T14:30:58.142Z,0.80
2023-01-11T14:33:53.991Z,0.80
2023-01-11T14:36:59.241Z,0.75
2023-01-11T14:39:50.579Z,0.65
2023-01-11T14:42:47.111Z,0.80
2023-01-11T14:45:35.305Z,1.13
2023-01-11T14:48:21.541Z,0.80
2023-01-11T14:50:57.828Z,0.95
2023-01-11T14:53:28.800Z,0.85
2023-01-11T14:55:55.356Z,0.70
2023-01-11T14:58:27.575Z,0.73
2023-01-11T15:00:53.949Z,0.90
2023-01-11T15:03:20.771Z,0.77
2023-01-11T15:06:13.417Z,0.88
2023-01-11T15:08:43.942Z,1.10
2023-01-11T15:11:31.052Z,0.88
2023-01-11T15:14:02.778Z,1.13
2023-01-11T15:16:49.717Z,1.20
2023-01-11T15:19:35.834Z,1.10
2023-01-11T15:22:03.956Z,0.98
2023-01-11T15:24:37.649Z,1.20
2023-01-11T15:27:04.388Z,0.98
2023-01-11T15:29:32.953Z,1.17
2023-01-11T15:32:02.456Z,1.20
2023-01-11T15:34:31.909Z,1.33
2023-01-11T15:37:02.153Z,1.60
2023-01-11T15:39:34.666Z,1.25
2023-01-11T15:42:17.777Z,1.20
2023-01-11T15:45:01.702Z,1.23
2023-01-11T15:47:52.522Z,1.58
2023-01-11T15:50:49.928Z,1.10
2023-01-11T15:53:49.184Z,1.30
2023-01-11T15:56:32.122Z,1.70
2023-01-11T15:59:19.971Z,1.60
2023-01-11T16:02:22.858Z,2.05
2023-01-11T16:04:56.641Z,1.92
